Time;durP1;ratioP1;P1;durP2;ratioP2;P2;SDS_P1;SDS_P2;PMS_P1;PMS_P2;Temp;Humidity;BMP_temperature;BMP_pressure;BME280_temperature;BME280_humidity;BME280_pressure;Samples;Min_cycle;Max_cycle;Signal;HPM_P1;HPM_P2
2023/12/15 00:01:15;;;;;;;15.23;12.03;;;8.20;99.90;;;;;;5031071;28;20181;-85
2023/12/15 00:03:40;;;;;;;19.40;12.27;;;8.20;99.90;;;;;;5032369;28;20185;-85
2023/12/15 00:06:06;;;;;;;16.63;11.90;;;8.30;99.90;;;;;;5031649;28;20181;-83
2023/12/15 00:08:32;;;;;;;17.43;11.00;;;8.30;99.90;;;;;;5032128;28;20194;-85
2023/12/15 00:10:59;;;;;;;17.53;12.03;;;8.30;99.90;;;;;;5033142;28;20296;-84
2023/12/15 00:13:25;;;;;;;17.73;11.33;;;8.20;99.90;;;;;;5031571;28;20175;-84
2023/12/15 00:15:50;;;;;;;17.40;12.37;;;8.20;99.90;;;;;;5031679;28;20177;-85
2023/12/15 00:18:16;;;;;;;17.20;11.23;;;8.20;99.90;;;;;;5031374;28;20170;-85
2023/12/15 00:20:42;;;;;;;13.67;11.67;;;8.30;99.90;;;;;;5031596;28;20185;-84
2023/12/15 00:23:08;;;;;;;15.50;11.37;;;8.30;99.90;;;;;;5031386;28;20288;-85
2023/12/15 00:25:33;;;;;;;13.70;10.47;;;8.30;99.90;;;;;;5031720;28;20205;-84
2023/12/15 00:27:59;;;;;;;18.57;11.33;;;8.30;99.90;;;;;;5030563;28;20599;-86
2023/12/15 00:30:25;;;;;;;17.33;10.87;;;8.30;99.90;;;;;;5031367;28;20275;-82
2023/12/15 00:32:50;;;;;;;15.40;10.53;;;8.50;99.90;;;;;;5031572;28;20606;-84
2023/12/15 00:35:16;;;;;;;16.87;10.53;;;8.40;99.90;;;;;;5030690;28;20174;-83
2023/12/15 00:37:42;;;;;;;16.13;10.93;;;8.50;99.90;;;;;;5031069;28;20184;-84
2023/12/15 00:40:10;;;;;;;13.03;10.47;;;8.40;99.90;;;;;;5031296;28;20193;-85
2023/12/15 00:42:36;;;;;;;14.53;11.10;;;8.40;99.90;;;;;;5030002;28;20173;-83
2023/12/15 00:45:02;;;;;;;15.83;11.40;;;8.30;99.90;;;;;;5030978;28;20177;-85
2023/12/15 00:47:28;;;;;;;16.87;10.67;;;8.40;99.90;;;;;;5031552;28;20177;-84
2023/12/15 00:49:53;;;;;;;11.83;9.80;;;8.40;99.90;;;;;;5030344;28;20173;-85
2023/12/15 00:52:19;;;;;;;14.50;10.73;;;8.40;99.90;;;;;;5032931;28;20209;-84
2023/12/15 00:54:45;;;;;;;15.33;10.60;;;8.50;99.90;;;;;;5031519;28;20517;-83
2023/12/15 00:57:10;;;;;;;13.30;10.53;;;8.50;99.90;;;;;;5032518;28;20629;-85
2023/12/15 00:59:36;;;;;;;15.73;10.93;;;8.50;99.90;;;;;;5030854;28;20648;-84
2023/12/15 01:02:03;;;;;;;19.03;10.93;;;8.50;99.90;;;;;;5031287;28;20174;-84
2023/12/15 01:04:29;;;;;;;13.27;10.20;;;8.60;99.90;;;;;;5032755;28;20173;-83
2023/12/15 01:06:54;;;;;;;14.57;10.70;;;8.50;99.90;;;;;;5030391;28;20189;-85
2023/12/15 01:09:21;;;;;;;18.30;10.73;;;8.80;99.90;;;;;;5030515;28;20656;-85
2023/12/15 01:11:47;;;;;;;15.20;10.63;;;8.80;99.90;;;;;;5030351;28;20213;-84
2023/12/15 01:14:13;;;;;;;15.90;10.93;;;8.80;99.90;;;;;;5031449;28;20176;-86
2023/12/15 01:16:49;;;;;;;17.53;10.83;;;8.70;99.90;;;;;;5030171;28;20256;-84
2023/12/15 01:19:17;;;;;;;18.13;12.10;;;8.60;99.90;;;;;;5031575;28;20705;-83
2023/12/15 01:21:43;;;;;;;15.93;12.17;;;8.70;99.90;;;;;;5034090;28;20261;-83
2023/12/15 01:24:11;;;;;;;17.27;11.93;;;8.80;99.90;;;;;;5034799;28;20186;-84
2023/12/15 01:26:36;;;;;;;15.77;13.27;;;8.90;99.90;;;;;;5033896;28;20169;-84
2023/12/15 01:29:02;;;;;;;17.70;13.53;;;8.70;99.90;;;;;;5034482;28;20170;-84
2023/12/15 01:31:28;;;;;;;15.63;12.47;;;8.70;99.90;;;;;;5035026;28;20300;-84
2023/12/15 01:33:54;;;;;;;17.33;12.33;;;8.70;99.90;;;;;;5034459;28;20536;-84
2023/12/15 01:36:20;;;;;;;19.13;13.40;;;8.70;99.90;;;;;;5036206;28;20223;-84
2023/12/15 01:38:45;;;;;;;17.23;12.50;;;8.60;99.90;;;;;;5035347;28;20260;-83
2023/12/15 01:41:11;;;;;;;17.80;12.77;;;8.60;99.90;;;;;;5034806;28;20588;-84
2023/12/15 01:43:37;;;;;;;18.20;12.53;;;8.60;99.90;;;;;;5034985;28;20211;-84
2023/12/15 01:46:03;;;;;;;17.07;13.40;;;8.70;99.90;;;;;;5034627;28;20304;-83
2023/12/15 01:48:32;;;;;;;18.57;13.83;;;8.60;99.90;;;;;;5035305;28;20177;-82
2023/12/15 01:50:58;;;;;;;20.00;14.17;;;8.40;99.90;;;;;;5034105;28;20209;-85
2023/12/15 01:53:23;;;;;;;20.40;14.70;;;8.40;99.90;;;;;;5034776;28;20189;-86
2023/12/15 01:55:49;;;;;;;21.50;14.67;;;8.40;99.90;;;;;;5034611;28;20181;-84
2023/12/15 01:58:15;;;;;;;19.37;14.43;;;8.40;99.90;;;;;;5034662;28;20264;-84
2023/12/15 02:00:41;;;;;;;20.63;14.87;;;8.40;99.90;;;;;;5034553;28;20216;-84
2023/12/15 02:03:06;;;;;;;23.67;14.47;;;8.40;99.90;;;;;;5034587;28;20174;-84
2023/12/15 02:05:32;;;;;;;23.17;15.43;;;8.40;99.90;;;;;;5033712;28;20177;-82
2023/12/15 02:07:59;;;;;;;20.77;15.67;;;8.40;99.90;;;;;;5033263;28;20220;-84
2023/12/15 02:10:25;;;;;;;22.03;16.33;;;8.50;99.90;;;;;;5034138;28;20205;-84
2023/12/15 02:12:50;;;;;;;23.03;16.40;;;8.50;99.90;;;;;;5034130;28;20186;-83
2023/12/15 02:15:17;;;;;;;25.77;17.53;;;8.50;99.90;;;;;;5034610;28;20178;-84
2023/12/15 02:17:42;;;;;;;26.07;18.37;;;8.60;99.90;;;;;;5033479;28;20181;-84
2023/12/15 02:20:08;;;;;;;25.03;17.70;;;8.70;99.90;;;;;;5033862;28;20524;-85
2023/12/15 02:22:34;;;;;;;25.27;18.50;;;8.70;99.90;;;;;;5032690;28;20517;-84
2023/12/15 02:25:00;;;;;;;24.67;16.90;;;8.70;99.90;;;;;;5034042;28;20181;-84
2023/12/15 02:27:25;;;;;;;29.13;18.87;;;8.70;99.90;;;;;;5033823;28;20189;-84
2023/12/15 02:29:51;;;;;;;27.00;18.87;;;8.90;99.90;;;;;;5032033;28;20268;-85
2023/12/15 02:32:16;;;;;;;26.37;19.77;;;9.00;99.90;;;;;;5032253;28;20735;-83
2023/12/15 02:34:42;;;;;;;26.20;19.73;;;8.80;99.90;;;;;;5033874;28;20178;-84
2023/12/15 02:37:08;;;;;;;27.17;19.63;;;8.70;99.90;;;;;;5034819;28;20231;-84
2023/12/15 02:39:34;;;;;;;27.13;18.53;;;8.60;99.90;;;;;;5033988;28;20174;-84
2023/12/15 02:41:59;;;;;;;27.67;20.53;;;8.60;99.90;;;;;;5033921;28;20208;-84
2023/12/15 02:44:25;;;;;;;25.67;19.20;;;8.50;99.90;;;;;;5033587;28;20178;-85
2023/12/15 02:46:51;;;;;;;29.63;19.50;;;8.40;99.90;;;;;;5033411;28;20622;-84
2023/12/15 02:49:18;;;;;;;28.57;19.73;;;8.40;99.90;;;;;;5033682;28;20189;-83
2023/12/15 02:51:44;;;;;;;27.40;20.07;;;8.50;99.90;;;;;;5032972;28;20217;-84
2023/12/15 02:54:10;;;;;;;26.23;19.77;;;8.60;99.90;;;;;;5032883;28;20181;-83
2023/12/15 02:56:35;;;;;;;25.60;20.67;;;8.70;99.90;;;;;;5032918;28;20193;-85
2023/12/15 02:59:03;;;;;;;32.47;20.70;;;8.70;99.90;;;;;;5032189;28;20199;-84
2023/12/15 03:01:29;;;;;;;29.40;20.50;;;8.80;99.90;;;;;;5034362;28;20264;-84
2023/12/15 03:03:54;;;;;;;33.10;21.20;;;8.80;99.90;;;;;;5033744;28;20324;-83
2023/12/15 03:06:20;;;;;;;28.73;20.40;;;8.90;99.90;;;;;;5033387;28;20193;-84
2023/12/15 03:08:46;;;;;;;29.33;20.80;;;8.80;99.90;;;;;;5034427;28;20182;-83
2023/12/15 03:11:12;;;;;;;32.20;22.00;;;9.00;99.90;;;;;;5033101;28;20216;-84
2023/12/15 03:13:38;;;;;;;35.77;23.13;;;9.00;99.90;;;;;;5032500;28;20200;-84
2023/12/15 03:16:09;;;;;;;29.17;21.60;;;8.90;99.90;;;;;;5033446;28;20236;-83
2023/12/15 03:18:35;;;;;;;32.27;23.03;;;9.00;99.90;;;;;;5032993;28;20625;-83
2023/12/15 03:21:01;;;;;;;33.63;23.07;;;9.10;99.90;;;;;;5032279;28;20240;-83
2023/12/15 03:23:26;;;;;;;30.60;22.30;;;9.10;99.90;;;;;;5032724;28;20178;-84
2023/12/15 03:25:52;;;;;;;31.63;22.97;;;8.90;99.90;;;;;;5031012;28;20185;-82
2023/12/15 03:28:18;;;;;;;30.00;23.23;;;9.00;99.90;;;;;;5031386;28;20265;-83
2023/12/15 03:30:44;;;;;;;37.93;23.97;;;9.00;99.90;;;;;;5032104;28;20221;-84
2023/12/15 03:33:09;;;;;;;33.33;22.97;;;9.00;99.90;;;;;;5032923;28;20611;-83
2023/12/15 03:35:35;;;;;;;33.13;22.63;;;9.00;99.90;;;;;;5033593;28;20198;-84
2023/12/15 03:38:03;;;;;;;29.23;21.90;;;9.10;99.90;;;;;;5033470;28;20200;-84
2023/12/15 03:40:29;;;;;;;35.97;23.90;;;9.10;99.90;;;;;;5032761;28;20212;-84
2023/12/15 03:42:55;;;;;;;31.10;23.37;;;9.10;99.90;;;;;;5032395;28;20178;-84
2023/12/15 03:45:20;;;;;;;30.13;22.40;;;9.00;99.90;;;;;;5031941;28;20173;-83
2023/12/15 03:47:47;;;;;;;34.57;23.70;;;9.00;99.90;;;;;;5032608;28;20209;-84
2023/12/15 03:50:12;;;;;;;33.07;23.47;;;9.10;99.90;;;;;;5031902;28;20259;-84
2023/12/15 03:52:38;;;;;;;37.87;25.93;;;9.10;99.90;;;;;;5032251;28;20216;-85
2023/12/15 03:55:04;;;;;;;37.00;25.00;;;9.20;99.90;;;;;;5031833;28;20590;-84
2023/12/15 03:57:30;;;;;;;37.57;26.57;;;9.20;99.90;;;;;;5032460;28;20719;-84
2023/12/15 03:59:55;;;;;;;42.60;26.20;;;9.20;99.90;;;;;;5032117;28;20201;-84
2023/12/15 04:02:21;;;;;;;39.03;26.20;;;9.30;99.90;;;;;;5031471;28;20181;-85
2023/12/15 04:04:47;;;;;;;41.20;27.37;;;9.20;99.90;;;;;;5030665;28;20173;-83
2023/12/15 04:07:13;;;;;;;38.80;26.43;;;9.30;99.90;;;;;;5031102;28;20244;-84
2023/12/15 04:09:38;;;;;;;36.90;26.63;;;9.20;99.90;;;;;;5032079;28;20231;-82
2023/12/15 04:12:04;;;;;;;38.30;27.00;;;9.10;99.90;;;;;;5031928;28;20617;-84
2023/12/15 04:14:33;;;;;;;45.37;27.27;;;9.20;99.90;;;;;;5032300;28;20174;-84
2023/12/15 04:16:59;;;;;;;44.80;28.70;;;9.20;99.90;;;;;;5032052;28;20184;-84
2023/12/15 04:19:24;;;;;;;45.17;27.93;;;9.20;99.90;;;;;;5032012;28;20165;-85
2023/12/15 04:21:50;;;;;;;47.13;29.70;;;9.30;99.90;;;;;;5031993;28;20182;-82
2023/12/15 04:24:16;;;;;;;42.70;27.37;;;9.20;99.90;;;;;;5030229;28;20188;-82
2023/12/15 04:26:42;;;;;;;42.50;27.97;;;9.30;99.90;;;;;;5032105;28;20182;-85
2023/12/15 04:29:07;;;;;;;42.73;28.63;;;9.20;99.90;;;;;;5032144;28;20212;-83
2023/12/15 04:31:33;;;;;;;52.43;29.77;;;9.10;99.90;;;;;;5032080;28;20303;-84
2023/12/15 04:33:59;;;;;;;45.63;28.80;;;9.30;99.90;;;;;;5030673;28;20182;-84
2023/12/15 04:36:26;;;;;;;48.50;30.83;;;9.30;99.90;;;;;;5031815;28;20177;-85
2023/12/15 04:38:52;;;;;;;43.93;28.10;;;9.30;99.90;;;;;;5031669;28;20622;-84
2023/12/15 04:41:19;;;;;;;48.30;28.80;;;9.30;99.90;;;;;;5031769;28;20213;-84
2023/12/15 04:43:45;;;;;;;44.47;28.97;;;9.20;99.90;;;;;;5031576;28;20181;-84
2023/12/15 04:46:11;;;;;;;45.03;29.00;;;9.10;99.90;;;;;;5031561;28;20654;-84
2023/12/15 04:48:37;;;;;;;47.90;28.93;;;9.20;99.90;;;;;;5031782;28;20645;-85
2023/12/15 04:51:03;;;;;;;52.33;28.43;;;9.20;99.90;;;;;;5031569;28;20208;-83
2023/12/15 04:53:29;;;;;;;49.70;29.07;;;9.20;99.90;;;;;;5031960;28;20241;-83
2023/12/15 04:55:55;;;;;;;48.00;29.13;;;9.20;99.90;;;;;;5032235;28;20188;-85
2023/12/15 04:58:20;;;;;;;52.97;30.27;;;9.20;99.90;;;;;;5036010;28;20272;-84
2023/12/15 05:00:46;;;;;;;48.83;29.67;;;9.20;99.90;;;;;;5035411;28;20223;-84
2023/12/15 05:03:12;;;;;;;46.07;28.97;;;9.40;99.90;;;;;;5035606;28;20213;-84
2023/12/15 05:05:37;;;;;;;46.60;28.30;;;9.50;99.90;;;;;;5035450;28;20174;-84
2023/12/15 05:08:04;;;;;;;47.67;30.47;;;9.30;99.90;;;;;;5035319;28;20673;-84
2023/12/15 05:10:29;;;;;;;44.07;27.03;;;9.30;99.90;;;;;;5034810;28;20209;-84
2023/12/15 05:12:55;;;;;;;46.60;28.40;;;9.20;99.90;;;;;;5035320;28;20220;-84
2023/12/15 05:15:21;;;;;;;49.73;29.27;;;9.30;99.90;;;;;;5035542;28;20173;-83
2023/12/15 05:17:46;;;;;;;41.63;27.70;;;9.40;99.90;;;;;;5036764;28;20192;-84
2023/12/15 05:20:12;;;;;;;46.47;27.17;;;9.10;99.90;;;;;;5035249;28;20181;-84
2023/12/15 05:22:38;;;;;;;47.97;27.47;;;9.20;99.90;;;;;;5037336;28;20185;-83
2023/12/15 05:25:04;;;;;;;46.80;29.53;;;9.30;99.90;;;;;;5036199;28;20197;-85
2023/12/15 05:27:29;;;;;;;51.70;30.40;;;9.20;99.90;;;;;;5035007;28;20166;-84
2023/12/15 05:29:55;;;;;;;48.37;28.33;;;9.10;99.90;;;;;;5035642;28;20634;-84
2023/12/15 05:32:21;;;;;;;44.67;28.00;;;9.10;99.90;;;;;;5034788;28;20228;-84
2023/12/15 05:34:47;;;;;;;45.63;27.97;;;9.00;99.90;;;;;;5035403;28;20166;-83
2023/12/15 05:37:13;;;;;;;52.27;29.67;;;9.10;99.90;;;;;;5035154;28;20217;-84
2023/12/15 05:39:42;;;;;;;48.47;29.80;;;9.00;99.90;;;;;;5035031;28;20189;-85
2023/12/15 05:42:08;;;;;;;43.50;29.00;;;9.10;99.90;;;;;;5034683;28;20268;-83
2023/12/15 05:44:33;;;;;;;52.87;30.10;;;9.10;99.90;;;;;;5034004;28;20256;-87
2023/12/15 05:46:59;;;;;;;51.40;29.73;;;9.10;99.90;;;;;;5034403;28;20181;-84
2023/12/15 05:49:25;;;;;;;47.63;28.83;;;9.00;99.90;;;;;;5034409;28;20241;-85
2023/12/15 05:51:50;;;;;;;49.10;28.23;;;9.00;99.90;;;;;;5035330;28;20779;-85
2023/12/15 05:54:16;;;;;;;44.97;29.17;;;9.00;99.90;;;;;;5034072;28;20525;-84
2023/12/15 05:56:42;;;;;;;47.13;28.30;;;9.00;99.90;;;;;;5018574;28;20269;-83
2023/12/15 05:59:08;;;;;;;46.87;29.77;;;9.10;99.90;;;;;;5014721;28;20179;-84
2023/12/15 06:01:34;;;;;;;49.57;29.10;;;9.10;99.90;;;;;;5013399;28;20660;-85
2023/12/15 06:03:59;;;;;;;51.73;30.17;;;9.20;99.90;;;;;;5030681;28;20177;-84
2023/12/15 06:06:25;;;;;;;48.87;29.97;;;9.20;99.90;;;;;;5033409;28;20504;-84
2023/12/15 06:08:51;;;;;;;51.67;28.30;;;9.10;99.90;;;;;;5034328;28;20336;-84
2023/12/15 06:11:17;;;;;;;51.67;29.07;;;9.20;99.90;;;;;;5033526;28;20631;-84
2023/12/15 06:13:43;;;;;;;49.67;28.80;;;9.30;99.90;;;;;;5032535;28;20192;-84
2023/12/15 06:16:17;;;;;;;49.20;30.00;;;9.20;99.90;;;;;;5034267;28;20264;-84
2023/12/15 06:18:43;;;;;;;44.87;27.03;;;9.10;99.90;;;;;;5034507;28;20490;-85
2023/12/15 06:21:08;;;;;;;51.00;29.50;;;9.10;99.90;;;;;;5034629;28;20196;-84
2023/12/15 06:23:34;;;;;;;48.97;28.67;;;9.20;99.90;;;;;;5033550;28;20552;-84
2023/12/15 06:26:00;;;;;;;47.30;29.27;;;9.20;99.90;;;;;;5032676;28;20177;-84
2023/12/15 06:28:25;;;;;;;46.73;28.27;;;9.20;99.90;;;;;;5033378;28;20174;-85
2023/12/15 06:30:51;;;;;;;42.53;27.53;;;9.30;99.90;;;;;;5032453;28;20200;-85
2023/12/15 06:33:17;;;;;;;47.30;27.33;;;9.30;99.90;;;;;;5032298;28;20585;-85
2023/12/15 06:35:42;;;;;;;47.13;29.60;;;9.10;99.90;;;;;;5033596;28;20629;-84
2023/12/15 06:38:08;;;;;;;44.87;28.17;;;9.10;99.90;;;;;;5033659;28;20549;-84
2023/12/15 06:40:34;;;;;;;48.10;27.90;;;9.10;99.90;;;;;;5034117;28;20227;-85
2023/12/15 06:43:00;;;;;;;46.90;27.07;;;9.20;99.90;;;;;;5033065;28;20223;-82
2023/12/15 06:45:26;;;;;;;46.67;28.17;;;9.40;99.90;;;;;;5032740;28;20634;-84
2023/12/15 06:47:51;;;;;;;50.33;29.30;;;9.50;99.90;;;;;;5032228;28;20169;-85
2023/12/15 06:50:17;;;;;;;49.50;28.33;;;9.50;99.90;;;;;;5032961;28;20178;-84
2023/12/15 06:52:44;;;;;;;47.80;28.63;;;9.50;99.90;;;;;;5033030;28;20186;-85
2023/12/15 06:55:10;;;;;;;48.77;29.80;;;9.30;99.90;;;;;;5032672;28;20188;-88
2023/12/15 06:57:36;;;;;;;50.87;28.87;;;9.20;99.90;;;;;;5032925;28;20185;-83
2023/12/15 07:00:02;;;;;;;50.30;29.23;;;9.30;99.90;;;;;;5027151;28;20246;-83
2023/12/15 07:02:28;;;;;;;47.70;27.67;;;9.40;99.90;;;;;;5032722;28;20182;-84
2023/12/15 07:04:53;;;;;;;48.83;28.77;;;9.40;99.90;;;;;;5029267;28;20621;-84
2023/12/15 07:07:19;;;;;;;50.03;28.93;;;9.30;99.90;;;;;;5030774;28;20205;-84
2023/12/15 07:09:45;;;;;;;46.60;30.67;;;9.30;99.90;;;;;;5022592;28;20672;-84
2023/12/15 07:12:10;;;;;;;38.73;25.23;;;9.50;99.90;;;;;;5033799;28;20221;-85
2023/12/15 07:14:36;;;;;;;44.27;28.53;;;9.50;99.90;;;;;;5030970;28;20177;-86
2023/12/15 07:17:01;;;;;;;46.77;29.73;;;9.40;99.90;;;;;;5030746;28;20642;-84
2023/12/15 07:19:27;;;;;;;45.40;28.67;;;9.50;99.90;;;;;;5028596;28;20610;-86
2023/12/15 07:21:53;;;;;;;47.50;29.57;;;9.50;99.90;;;;;;5032072;28;20208;-84
2023/12/15 07:24:19;;;;;;;44.03;29.43;;;9.50;99.90;;;;;;5032415;28;20220;-83
2023/12/15 07:26:44;;;;;;;43.20;27.93;;;9.40;99.90;;;;;;5031683;28;20227;-85
2023/12/15 07:29:10;;;;;;;47.97;27.67;;;9.30;99.90;;;;;;5032346;28;20626;-83
2023/12/15 07:31:36;;;;;;;43.00;27.30;;;9.40;99.90;;;;;;5032469;28;20202;-83
2023/12/15 07:34:01;;;;;;;41.37;27.73;;;9.40;99.90;;;;;;5014264;28;20177;-84
2023/12/15 07:36:27;;;;;;;41.40;26.70;;;9.30;99.90;;;;;;5028766;28;20185;-85
2023/12/15 07:38:53;;;;;;;45.67;27.23;;;9.50;99.90;;;;;;5029105;28;20232;-84
2023/12/15 07:41:18;;;;;;;42.23;28.40;;;9.50;99.90;;;;;;5028860;28;20662;-83
2023/12/15 07:43:44;;;;;;;42.17;28.17;;;9.40;99.90;;;;;;5028595;28;20613;-85
2023/12/15 07:46:19;;;;;;;40.33;27.80;;;9.40;99.90;;;;;;5028886;28;20557;-84
2023/12/15 07:48:45;;;;;;;41.77;27.07;;;9.30;99.90;;;;;;5028753;28;20180;-85
2023/12/15 07:51:19;;;;;;;40.27;26.37;;;9.30;99.90;;;;;;5028590;28;20217;-84
2023/12/15 07:53:47;;;;;;;43.13;26.83;;;9.40;99.90;;;;;;5031775;28;20178;-84
2023/12/15 07:56:24;;;;;;;47.13;27.60;;;9.50;99.90;;;;;;5032204;28;20269;-84
2023/12/15 07:58:50;;;;;;;39.47;25.77;;;9.50;99.90;;;;;;5031218;28;20173;-87
2023/12/15 08:01:21;;;;;;;41.80;25.90;;;9.50;99.90;;;;;;5031567;28;20653;-84
2023/12/15 08:03:47;;;;;;;40.83;25.80;;;9.50;99.90;;;;;;5030893;28;20193;-85
2023/12/15 08:06:17;;;;;;;40.20;25.63;;;9.50;99.90;;;;;;5032213;28;20174;-84
2023/12/15 08:08:45;;;;;;;35.33;24.67;;;9.50;99.90;;;;;;5032050;28;20585;-84
2023/12/15 08:11:11;;;;;;;42.20;24.70;;;9.60;99.90;;;;;;5033076;28;20209;-82
2023/12/15 08:13:37;;;;;;;38.80;26.03;;;9.70;99.90;;;;;;5031395;28;20177;-84
2023/12/15 08:16:04;;;;;;;44.43;26.87;;;9.90;99.90;;;;;;5031691;28;20185;-84
2023/12/15 08:18:30;;;;;;;41.17;25.07;;;9.90;99.90;;;;;;5031350;28;20178;-84
2023/12/15 08:20:56;;;;;;;39.93;25.63;;;10.00;99.90;;;;;;5032075;28;20188;-84
2023/12/15 08:23:22;;;;;;;40.47;26.70;;;10.10;99.90;;;;;;5031350;28;20534;-84
2023/12/15 08:25:48;;;;;;;41.33;24.27;;;10.00;99.90;;;;;;5031363;28;20184;-85
2023/12/15 08:28:14;;;;;;;36.13;23.47;;;9.90;99.90;;;;;;5031537;28;20244;-85
2023/12/15 08:30:39;;;;;;;35.67;24.13;;;9.90;99.90;;;;;;5031398;28;20593;-84
2023/12/15 08:33:05;;;;;;;35.47;22.07;;;9.80;99.90;;;;;;5033117;28;20197;-85
2023/12/15 08:35:31;;;;;;;32.57;22.47;;;9.90;99.90;;;;;;5031619;28;20541;-84
2023/12/15 08:37:57;;;;;;;35.40;23.37;;;9.70;99.90;;;;;;5031682;28;20170;-84
2023/12/15 08:40:23;;;;;;;33.50;22.27;;;9.70;99.90;;;;;;5031047;28;20174;-84
2023/12/15 08:42:49;;;;;;;32.80;21.43;;;9.70;99.90;;;;;;5032826;28;20170;-85
2023/12/15 08:45:15;;;;;;;32.27;21.03;;;9.80;99.90;;;;;;5033160;28;20169;-83
2023/12/15 08:47:41;;;;;;;32.40;21.20;;;9.80;99.90;;;;;;5032734;28;20177;-84
2023/12/15 08:50:07;;;;;;;30.73;20.20;;;9.70;99.90;;;;;;5031517;28;20193;-84
2023/12/15 08:52:33;;;;;;;31.30;20.07;;;9.70;99.90;;;;;;5031570;28;20287;-83
2023/12/15 08:54:59;;;;;;;33.13;20.87;;;9.60;99.90;;;;;;5031336;28;20643;-84
2023/12/15 08:57:25;;;;;;;30.33;18.93;;;9.50;99.90;;;;;;5031341;28;20249;-84
2023/12/15 08:59:51;;;;;;;27.50;18.40;;;9.70;99.90;;;;;;5033108;28;20235;-84
2023/12/15 09:02:17;;;;;;;27.37;19.67;;;9.70;99.90;;;;;;5032490;28;20177;-85
2023/12/15 09:04:43;;;;;;;33.30;19.47;;;9.80;99.90;;;;;;5031565;28;20177;-85
2023/12/15 09:07:09;;;;;;;28.13;18.80;;;9.80;99.90;;;;;;5032517;28;20190;-85
2023/12/15 09:09:35;;;;;;;29.63;17.87;;;9.90;99.90;;;;;;5030830;28;20185;-85
2023/12/15 09:12:02;;;;;;;25.33;14.97;;;9.90;99.90;;;;;;5031244;28;20310;-84
2023/12/15 09:14:30;;;;;;;26.67;13.63;;;10.00;99.90;;;;;;5031071;28;20610;-84
2023/12/15 09:16:56;;;;;;;21.90;11.77;;;9.90;99.90;;;;;;5030932;28;20177;-85
2023/12/15 09:19:23;;;;;;;20.10;12.03;;;9.90;99.90;;;;;;5031058;28;20286;-85
2023/12/15 09:21:49;;;;;;;20.50;11.50;;;9.80;99.90;;;;;;5030834;28;20179;-83
2023/12/15 09:24:15;;;;;;;21.33;10.53;;;9.90;99.90;;;;;;5032805;28;20630;-82
2023/12/15 09:26:42;;;;;;;21.50;10.37;;;9.80;99.90;;;;;;5035101;28;20171;-85
2023/12/15 09:29:12;;;;;;;21.47;10.70;;;9.90;99.90;;;;;;5033065;28;20582;-85
2023/12/15 09:31:38;;;;;;;19.17;10.33;;;10.00;99.90;;;;;;5032280;28;20312;-84
2023/12/15 09:34:05;;;;;;;21.60;10.10;;;10.00;99.90;;;;;;5035418;28;20205;-84
2023/12/15 09:36:30;;;;;;;20.83;9.60;;;10.20;99.90;;;;;;5032544;28;20227;-84
2023/12/15 09:38:56;;;;;;;18.47;9.83;;;10.20;99.90;;;;;;5031621;28;20545;-82
2023/12/15 09:41:23;;;;;;;17.93;10.67;;;10.20;99.90;;;;;;5032417;28;20185;-85
2023/12/15 09:43:49;;;;;;;20.07;10.33;;;10.30;99.90;;;;;;5034868;28;20670;-85
2023/12/15 09:46:15;;;;;;;21.07;9.10;;;10.30;99.90;;;;;;5034506;28;20184;-83
2023/12/15 09:48:41;;;;;;;20.97;10.37;;;10.40;99.90;;;;;;5034637;28;20185;-83
2023/12/15 09:51:11;;;;;;;16.47;10.10;;;10.40;99.90;;;;;;5034448;28;20204;-84
2023/12/15 09:53:38;;;;;;;21.57;9.93;;;10.30;99.90;;;;;;5034200;28;20183;-85
2023/12/15 09:56:05;;;;;;;15.63;8.70;;;10.30;99.90;;;;;;5034325;28;20178;-85
2023/12/15 09:58:30;;;;;;;18.50;10.40;;;10.40;99.90;;;;;;5034111;28;20171;-85
2023/12/15 10:00:57;;;;;;;14.60;9.47;;;10.60;99.90;;;;;;5035178;28;20176;-84
2023/12/15 10:03:23;;;;;;;17.43;8.90;;;10.60;99.90;;;;;;5034367;28;20179;-85
2023/12/15 10:05:49;;;;;;;17.70;9.60;;;10.80;99.40;;;;;;5034711;28;20226;-83
2023/12/15 10:08:14;;;;;;;22.60;9.23;;;10.90;97.90;;;;;;5034518;28;20198;-84
2023/12/15 10:10:41;;;;;;;16.60;7.67;;;11.00;97.20;;;;;;5044769;28;20209;-86
2023/12/15 10:13:07;;;;;;;14.53;8.23;;;11.00;90.80;;;;;;5048354;28;20743;-84
2023/12/15 10:15:32;;;;;;;18.33;8.13;;;11.10;88.90;;;;;;5039037;28;20170;-83
2023/12/15 10:17:58;;;;;;;18.40;7.97;;;11.20;86.50;;;;;;5037098;28;20231;-84
2023/12/15 10:20:25;;;;;;;22.33;8.20;;;11.20;81.20;;;;;;5040105;28;20685;-83
2023/12/15 10:23:07;;;;;;;14.10;6.97;;;11.10;75.30;;;;;;5034727;28;20182;-84
2023/12/15 10:25:34;;;;;;;12.13;5.13;;;11.10;73.50;;;;;;5033751;28;20573;-85
2023/12/15 10:28:02;;;;;;;12.67;5.87;;;11.00;60.50;;;;;;5033495;28;20649;-83
2023/12/15 10:30:28;;;;;;;13.83;5.67;;;11.00;63.40;;;;;;5033750;28;20260;-85
2023/12/15 10:32:57;;;;;;;14.80;5.03;;;11.00;58.00;;;;;;5033623;28;20328;-85
2023/12/15 10:35:23;;;;;;;15.70;5.37;;;10.90;55.70;;;;;;5034109;28;20539;-83
2023/12/15 10:37:49;;;;;;;15.97;5.70;;;11.00;38.50;;;;;;5033550;28;20178;-85
2023/12/15 10:40:15;;;;;;;16.20;5.17;;;11.00;30.60;;;;;;5034882;28;20165;-85
2023/12/15 10:42:42;;;;;;;17.00;5.00;;;11.00;25.10;;;;;;5033853;28;20639;-84
2023/12/15 10:45:08;;;;;;;15.70;5.17;;;11.00;21.70;;;;;;5033521;28;20182;-83
2023/12/15 10:47:34;;;;;;;13.80;5.07;;;11.00;22.90;;;;;;5033376;28;20202;-85
2023/12/15 10:50:01;;;;;;;16.93;4.70;;;11.00;22.50;;;;;;5032583;28;20216;-86
2023/12/15 10:52:27;;;;;;;16.33;4.80;;;11.10;6.40;;;;;;5031910;28;20214;-84
2023/12/15 10:54:54;;;;;;;13.93;5.07;;;11.20;1.00;;;;;;5033048;28;20190;-84
2023/12/15 10:57:20;;;;;;;14.47;4.67;;;11.20;1.00;;;;;;5032938;28;20315;-84
2023/12/15 10:59:48;;;;;;;10.87;4.53;;;11.10;1.30;;;;;;5032359;28;20173;-85
2023/12/15 11:02:17;;;;;;;13.67;4.83;;;11.10;1.70;;;;;;5017548;28;20178;-83
2023/12/15 11:04:43;;;;;;;16.67;5.33;;;11.10;2.50;;;;;;5013870;28;20178;-85
2023/12/15 11:07:09;;;;;;;14.53;4.80;;;11.10;7.60;;;;;;5013277;28;20192;-85
2023/12/15 11:09:36;;;;;;;15.63;5.80;;;11.10;14.50;;;;;;5013250;28;20695;-86
2023/12/15 11:12:23;;;;;;;13.10;5.93;;;11.10;18.60;;;;;;5013320;28;20214;-84
2023/12/15 11:15:13;;;;;;;15.43;5.53;;;11.10;20.10;;;;;;5012763;28;20185;-85
2023/12/15 11:17:43;;;;;;;14.43;4.53;;;11.10;20.20;;;;;;5012525;28;20265;-83
2023/12/15 11:20:22;;;;;;;18.03;5.33;;;11.00;23.10;;;;;;5012454;28;20183;-84
2023/12/15 11:22:50;;;;;;;13.67;4.93;;;11.10;25.00;;;;;;5012703;28;20242;-84
2023/12/15 11:25:24;;;;;;;17.73;5.57;;;11.10;26.10;;;;;;5012936;28;20598;-84
2023/12/15 11:28:09;;;;;;;15.60;5.83;;;11.10;26.00;;;;;;5012957;28;20281;-84
2023/12/15 11:30:40;;;;;;;16.83;5.50;;;11.10;26.30;;;;;;5012695;28;20177;-84
2023/12/15 11:33:26;;;;;;;15.97;5.73;;;11.10;25.30;;;;;;5012584;28;20192;-85
2023/12/15 11:35:59;;;;;;;16.77;5.70;;;11.20;24.50;;;;;;4999054;28;20210;-84
2023/12/15 11:38:26;;;;;;;19.37;5.70;;;11.20;23.00;;;;;;5012723;28;20233;-83
2023/12/15 11:40:55;;;;;;;15.53;5.77;;;11.20;23.40;;;;;;5012666;28;20174;-85
2023/12/15 11:43:21;;;;;;;14.93;4.97;;;11.30;23.30;;;;;;5012879;28;20178;-84
2023/12/15 11:45:50;;;;;;;15.27;5.67;;;11.30;19.30;;;;;;5012850;28;20209;-84
2023/12/15 11:48:16;;;;;;;12.37;5.67;;;11.30;19.20;;;;;;5012050;28;20261;-84
2023/12/15 11:50:44;;;;;;;13.57;5.20;;;11.30;20.80;;;;;;5012260;28;20758;-85
2023/12/15 11:53:14;;;;;;;15.70;5.40;;;11.30;20.60;;;;;;5011700;28;20182;-85
2023/12/15 11:55:45;;;;;;;14.40;5.53;;;11.30;22.40;;;;;;5012893;28;20537;-84
2023/12/15 11:58:15;;;;;;;11.67;4.97;;;11.30;26.00;;;;;;5014233;28;20544;-84
2023/12/15 12:00:42;;;;;;;11.83;4.33;;;11.40;20.10;;;;;;5012227;28;20649;-85
2023/12/15 12:03:10;;;;;;;13.93;5.00;;;11.40;19.20;;;;;;5012727;28;20205;-83
2023/12/15 12:05:38;;;;;;;15.83;5.27;;;11.50;19.20;;;;;;5012160;28;20271;-85
2023/12/15 12:08:04;;;;;;;18.37;5.57;;;11.60;17.40;;;;;;5012384;28;20198;-84
2023/12/15 12:10:37;;;;;;;14.87;5.67;;;11.70;13.00;;;;;;5011938;28;20265;-84
2023/12/15 12:13:05;;;;;;;14.43;5.30;;;11.70;8.60;;;;;;5012031;28;20319;-85
2023/12/15 12:15:31;;;;;;;15.93;9.20;;;11.70;4.90;;;;;;5011755;28;20182;-85
2023/12/15 12:17:57;;;;;;;14.47;5.70;;;11.70;8.70;;;;;;5012044;28;20174;-83
2023/12/15 12:20:28;;;;;;;14.37;4.90;;;11.60;7.80;;;;;;5012603;28;20175;-84
2023/12/15 12:22:55;;;;;;;12.40;5.43;;;11.50;8.40;;;;;;5011761;28;20315;-83
2023/12/15 12:25:23;;;;;;;14.50;4.97;;;11.50;12.10;;;;;;5012070;28;20171;-84
2023/12/15 12:27:50;;;;;;;15.50;5.50;;;11.50;14.60;;;;;;5011979;28;20170;-85
2023/12/15 12:30:18;;;;;;;13.10;4.83;;;11.50;14.40;;;;;;5012046;28;20170;-84
2023/12/15 12:32:43;;;;;;;16.90;5.33;;;11.40;18.50;;;;;;5012030;28;20210;-83